sensor_id;sensor_type;location;lat;lon;timestamp;P1;durP1;ratioP1;P2;durP2;ratioP2
35150;SDS011;55720;51.972;4.624;2022-12-18T00:03:48;125.88;;;29.25;;
35150;SDS011;55720;51.972;4.624;2022-12-18T00:06:14;137.85;;;28.73;;
35150;SDS011;55720;51.972;4.624;2022-12-18T00:08:40;125.15;;;29.98;;
35150;SDS011;55720;51.972;4.624;2022-12-18T00:11:07;137.00;;;30.13;;
35150;SDS011;55720;51.972;4.624;2022-12-18T00:13:33;122.60;;;28.38;;
35150;SDS011;55720;51.972;4.624;2022-12-18T00:16:06;121.07;;;28.63;;
35150;SDS011;55720;51.972;4.624;2022-12-18T00:18:34;118.60;;;29.10;;
35150;SDS011;55720;51.972;4.624;2022-12-18T00:21:00;113.75;;;27.13;;
35150;SDS011;55720;51.972;4.624;2022-12-18T00:23:27;103.90;;;28.70;;
35150;SDS011;55720;51.972;4.624;2022-12-18T00:25:53;113.72;;;27.85;;
35150;SDS011;55720;51.972;4.624;2022-12-18T00:28:18;120.10;;;28.73;;
35150;SDS011;55720;51.972;4.624;2022-12-18T00:30:44;107.32;;;28.25;;
35150;SDS011;55720;51.972;4.624;2022-12-18T00:33:09;114.97;;;29.27;;
35150;SDS011;55720;51.972;4.624;2022-12-18T00:35:34;130.57;;;29.63;;
35150;SDS011;55720;51.972;4.624;2022-12-18T00:38:00;120.75;;;26.35;;
35150;SDS011;55720;51.972;4.624;2022-12-18T00:40:25;125.22;;;27.30;;
35150;SDS011;55720;51.972;4.624;2022-12-18T00:42:50;110.00;;;26.17;;
35150;SDS011;55720;51.972;4.624;2022-12-18T00:45:25;111.65;;;26.27;;
35150;SDS011;55720;51.972;4.624;2022-12-18T00:47:53;134.15;;;29.52;;
35150;SDS011;55720;51.972;4.624;2022-12-18T00:50:18;110.13;;;30.05;;
35150;SDS011;55720;51.972;4.624;2022-12-18T00:52:44;118.28;;;27.83;;
35150;SDS011;55720;51.972;4.624;2022-12-18T00:55:10;119.82;;;28.50;;
35150;SDS011;55720;51.972;4.624;2022-12-18T00:57:36;126.13;;;29.63;;
35150;SDS011;55720;51.972;4.624;2022-12-18T01:00:03;120.75;;;28.35;;
35150;SDS011;55720;51.972;4.624;2022-12-18T01:02:29;142.98;;;28.83;;
35150;SDS011;55720;51.972;4.624;2022-12-18T01:04:55;132.27;;;29.98;;
35150;SDS011;55720;51.972;4.624;2022-12-18T01:07:20;131.95;;;28.35;;
35150;SDS011;55720;51.972;4.624;2022-12-18T01:09:45;120.78;;;29.90;;
35150;SDS011;55720;51.972;4.624;2022-12-18T01:12:11;143.02;;;29.67;;
35150;SDS011;55720;51.972;4.624;2022-12-18T01:14:36;125.30;;;27.50;;
35150;SDS011;55720;51.972;4.624;2022-12-18T01:17:03;121.43;;;28.55;;
35150;SDS011;55720;51.972;4.624;2022-12-18T01:19:29;112.45;;;27.73;;
35150;SDS011;55720;51.972;4.624;2022-12-18T01:21:54;120.13;;;27.23;;
35150;SDS011;55720;51.972;4.624;2022-12-18T01:24:19;112.47;;;25.85;;
35150;SDS011;55720;51.972;4.624;2022-12-18T01:26:45;128.65;;;29.40;;
35150;SDS011;55720;51.972;4.624;2022-12-18T01:29:10;120.00;;;23.95;;
35150;SDS011;55720;51.972;4.624;2022-12-18T01:31:36;110.25;;;26.25;;
35150;SDS011;55720;51.972;4.624;2022-12-18T01:34:02;120.65;;;26.50;;
35150;SDS011;55720;51.972;4.624;2022-12-18T01:36:32;123.78;;;26.13;;
35150;SDS011;55720;51.972;4.624;2022-12-18T01:39:00;114.10;;;26.20;;
35150;SDS011;55720;51.972;4.624;2022-12-18T01:41:28;122.13;;;26.55;;
35150;SDS011;55720;51.972;4.624;2022-12-18T01:47:13;103.05;;;26.30;;
35150;SDS011;55720;51.972;4.624;2022-12-18T01:49:43;97.43;;;25.00;;
35150;SDS011;55720;51.972;4.624;2022-12-18T01:52:08;130.65;;;20.73;;
35150;SDS011;55720;51.972;4.624;2022-12-18T01:54:34;97.15;;;23.98;;
35150;SDS011;55720;51.972;4.624;2022-12-18T01:56:59;118.03;;;26.92;;
35150;SDS011;55720;51.972;4.624;2022-12-18T01:59:26;114.70;;;24.80;;
35150;SDS011;55720;51.972;4.624;2022-12-18T02:01:52;82.97;;;22.98;;
35150;SDS011;55720;51.972;4.624;2022-12-18T02:04:22;103.63;;;23.87;;
35150;SDS011;55720;51.972;4.624;2022-12-18T02:06:51;88.95;;;24.08;;
35150;SDS011;55720;51.972;4.624;2022-12-18T02:09:48;91.72;;;24.17;;
35150;SDS011;55720;51.972;4.624;2022-12-18T02:12:21;89.10;;;25.05;;
35150;SDS011;55720;51.972;4.624;2022-12-18T02:17:22;104.82;;;25.38;;
35150;SDS011;55720;51.972;4.624;2022-12-18T02:20:27;99.78;;;24.77;;
35150;SDS011;55720;51.972;4.624;2022-12-18T02:28:52;105.32;;;24.05;;
35150;SDS011;55720;51.972;4.624;2022-12-18T02:31:22;129.88;;;26.67;;
35150;SDS011;55720;51.972;4.624;2022-12-18T02:33:52;127.80;;;25.25;;
35150;SDS011;55720;51.972;4.624;2022-12-18T02:36:24;94.75;;;24.55;;
35150;SDS011;55720;51.972;4.624;2022-12-18T02:38:52;96.15;;;24.08;;
35150;SDS011;55720;51.972;4.624;2022-12-18T02:41:19;107.93;;;26.63;;
35150;SDS011;55720;51.972;4.624;2022-12-18T02:43:56;110.38;;;24.92;;
35150;SDS011;55720;51.972;4.624;2022-12-18T02:46:33;103.35;;;24.35;;
35150;SDS011;55720;51.972;4.624;2022-12-18T02:54:39;111.90;;;26.23;;
35150;SDS011;55720;51.972;4.624;2022-12-18T02:57:17;203.40;;;28.20;;
35150;SDS011;55720;51.972;4.624;2022-12-18T03:00:32;127.32;;;27.70;;
35150;SDS011;55720;51.972;4.624;2022-12-18T03:05:43;127.55;;;25.65;;
35150;SDS011;55720;51.972;4.624;2022-12-18T03:08:17;150.90;;;27.27;;
35150;SDS011;55720;51.972;4.624;2022-12-18T03:10:49;100.15;;;23.48;;
35150;SDS011;55720;51.972;4.624;2022-12-18T03:16:06;121.10;;;25.75;;
35150;SDS011;55720;51.972;4.624;2022-12-18T03:18:36;109.47;;;25.38;;
35150;SDS011;55720;51.972;4.624;2022-12-18T03:21:07;126.15;;;25.38;;
35150;SDS011;55720;51.972;4.624;2022-12-18T03:23:36;106.88;;;26.20;;
35150;SDS011;55720;51.972;4.624;2022-12-18T03:26:10;113.47;;;24.02;;
35150;SDS011;55720;51.972;4.624;2022-12-18T03:31:11;109.70;;;22.33;;
35150;SDS011;55720;51.972;4.624;2022-12-18T03:33:55;114.28;;;23.58;;
35150;SDS011;55720;51.972;4.624;2022-12-18T03:36:24;106.78;;;23.20;;
35150;SDS011;55720;51.972;4.624;2022-12-18T03:38:51;124.90;;;24.20;;
35150;SDS011;55720;51.972;4.624;2022-12-18T03:41:33;93.18;;;23.02;;
35150;SDS011;55720;51.972;4.624;2022-12-18T03:47:55;95.85;;;23.20;;
35150;SDS011;55720;51.972;4.624;2022-12-18T03:52:46;86.53;;;22.95;;
35150;SDS011;55720;51.972;4.624;2022-12-18T03:55:13;85.65;;;23.65;;
35150;SDS011;55720;51.972;4.624;2022-12-18T03:57:38;91.53;;;23.05;;
35150;SDS011;55720;51.972;4.624;2022-12-18T04:00:08;89.97;;;23.02;;
35150;SDS011;55720;51.972;4.624;2022-12-18T04:02:36;94.80;;;23.52;;
35150;SDS011;55720;51.972;4.624;2022-12-18T04:05:06;93.25;;;23.60;;
35150;SDS011;55720;51.972;4.624;2022-12-18T04:07:32;84.47;;;23.02;;
35150;SDS011;55720;51.972;4.624;2022-12-18T04:09:59;94.05;;;23.08;;
35150;SDS011;55720;51.972;4.624;2022-12-18T04:12:26;83.07;;;23.10;;
35150;SDS011;55720;51.972;4.624;2022-12-18T04:14:54;90.28;;;23.95;;
35150;SDS011;55720;51.972;4.624;2022-12-18T04:17:19;95.35;;;25.85;;
35150;SDS011;55720;51.972;4.624;2022-12-18T04:19:45;102.22;;;24.23;;
35150;SDS011;55720;51.972;4.624;2022-12-18T04:22:10;93.00;;;24.58;;
35150;SDS011;55720;51.972;4.624;2022-12-18T04:24:36;91.25;;;23.98;;
35150;SDS011;55720;51.972;4.624;2022-12-18T04:27:01;86.30;;;24.60;;
35150;SDS011;55720;51.972;4.624;2022-12-18T04:29:27;85.38;;;23.65;;
35150;SDS011;55720;51.972;4.624;2022-12-18T04:31:53;82.55;;;22.83;;
35150;SDS011;55720;51.972;4.624;2022-12-18T04:34:19;86.13;;;24.40;;
35150;SDS011;55720;51.972;4.624;2022-12-18T04:36:45;81.18;;;23.10;;
35150;SDS011;55720;51.972;4.624;2022-12-18T04:39:10;78.15;;;22.17;;
35150;SDS011;55720;51.972;4.624;2022-12-18T04:41:35;96.60;;;23.65;;
35150;SDS011;55720;51.972;4.624;2022-12-18T04:44:01;89.88;;;23.63;;
35150;SDS011;55720;51.972;4.624;2022-12-18T04:46:26;88.88;;;24.45;;
35150;SDS011;55720;51.972;4.624;2022-12-18T04:48:51;92.82;;;23.67;;
35150;SDS011;55720;51.972;4.624;2022-12-18T04:51:17;85.90;;;22.50;;
35150;SDS011;55720;51.972;4.624;2022-12-18T04:53:42;88.65;;;23.85;;
35150;SDS011;55720;51.972;4.624;2022-12-18T04:56:09;89.10;;;23.25;;
35150;SDS011;55720;51.972;4.624;2022-12-18T04:58:36;86.53;;;22.77;;
35150;SDS011;55720;51.972;4.624;2022-12-18T05:01:02;79.57;;;22.45;;
35150;SDS011;55720;51.972;4.624;2022-12-18T05:03:28;88.95;;;21.83;;
35150;SDS011;55720;51.972;4.624;2022-12-18T05:05:53;72.20;;;21.30;;
35150;SDS011;55720;51.972;4.624;2022-12-18T05:08:19;77.90;;;21.73;;
35150;SDS011;55720;51.972;4.624;2022-12-18T05:10:44;73.00;;;21.75;;
35150;SDS011;55720;51.972;4.624;2022-12-18T05:13:09;72.00;;;22.05;;
35150;SDS011;55720;51.972;4.624;2022-12-18T05:15:35;73.03;;;22.58;;
35150;SDS011;55720;51.972;4.624;2022-12-18T05:18:01;71.43;;;20.95;;
35150;SDS011;55720;51.972;4.624;2022-12-18T05:20:28;62.38;;;20.58;;
35150;SDS011;55720;51.972;4.624;2022-12-18T05:22:53;64.20;;;19.63;;
35150;SDS011;55720;51.972;4.624;2022-12-18T05:25:19;63.28;;;21.05;;
35150;SDS011;55720;51.972;4.624;2022-12-18T05:27:45;74.30;;;21.00;;
35150;SDS011;55720;51.972;4.624;2022-12-18T05:30:11;71.97;;;20.17;;
35150;SDS011;55720;51.972;4.624;2022-12-18T05:32:37;79.13;;;21.98;;
35150;SDS011;55720;51.972;4.624;2022-12-18T05:35:03;66.88;;;20.70;;
35150;SDS011;55720;51.972;4.624;2022-12-18T05:37:30;85.53;;;23.60;;
35150;SDS011;55720;51.972;4.624;2022-12-18T05:39:55;81.28;;;24.05;;
35150;SDS011;55720;51.972;4.624;2022-12-18T05:42:21;82.38;;;24.13;;
35150;SDS011;55720;51.972;4.624;2022-12-18T05:44:46;89.05;;;22.83;;
35150;SDS011;55720;51.972;4.624;2022-12-18T05:47:11;89.68;;;22.90;;
35150;SDS011;55720;51.972;4.624;2022-12-18T05:49:37;89.50;;;25.67;;
35150;SDS011;55720;51.972;4.624;2022-12-18T05:52:02;81.40;;;22.88;;
35150;SDS011;55720;51.972;4.624;2022-12-18T05:54:28;88.20;;;23.75;;
35150;SDS011;55720;51.972;4.624;2022-12-18T05:56:53;94.65;;;26.05;;
35150;SDS011;55720;51.972;4.624;2022-12-18T05:59:19;99.45;;;25.98;;
35150;SDS011;55720;51.972;4.624;2022-12-18T06:01:45;100.63;;;26.40;;
35150;SDS011;55720;51.972;4.624;2022-12-18T06:04:11;96.80;;;24.73;;
35150;SDS011;55720;51.972;4.624;2022-12-18T06:06:37;86.43;;;25.88;;
35150;SDS011;55720;51.972;4.624;2022-12-18T06:09:02;87.97;;;24.75;;
35150;SDS011;55720;51.972;4.624;2022-12-18T06:11:33;99.50;;;26.95;;
35150;SDS011;55720;51.972;4.624;2022-12-18T06:13:59;88.68;;;24.63;;
35150;SDS011;55720;51.972;4.624;2022-12-18T06:16:25;81.07;;;24.27;;
35150;SDS011;55720;51.972;4.624;2022-12-18T06:18:52;86.68;;;25.48;;
35150;SDS011;55720;51.972;4.624;2022-12-18T06:21:17;95.35;;;24.45;;
35150;SDS011;55720;51.972;4.624;2022-12-18T06:23:42;87.20;;;23.58;;
35150;SDS011;55720;51.972;4.624;2022-12-18T06:26:13;90.55;;;23.63;;
35150;SDS011;55720;51.972;4.624;2022-12-18T06:28:53;93.10;;;24.58;;
35150;SDS011;55720;51.972;4.624;2022-12-18T06:31:19;79.63;;;22.95;;
35150;SDS011;55720;51.972;4.624;2022-12-18T06:33:44;94.72;;;24.45;;
35150;SDS011;55720;51.972;4.624;2022-12-18T06:36:10;89.30;;;23.70;;
35150;SDS011;55720;51.972;4.624;2022-12-18T06:38:38;79.82;;;22.92;;
35150;SDS011;55720;51.972;4.624;2022-12-18T06:41:08;75.60;;;22.80;;
35150;SDS011;55720;51.972;4.624;2022-12-18T06:43:35;82.68;;;23.90;;
35150;SDS011;55720;51.972;4.624;2022-12-18T06:46:00;77.20;;;22.73;;
35150;SDS011;55720;51.972;4.624;2022-12-18T06:48:27;78.30;;;21.52;;
35150;SDS011;55720;51.972;4.624;2022-12-18T06:50:52;82.35;;;22.10;;
35150;SDS011;55720;51.972;4.624;2022-12-18T06:53:17;68.50;;;22.38;;
35150;SDS011;55720;51.972;4.624;2022-12-18T06:55:43;68.88;;;19.92;;
35150;SDS011;55720;51.972;4.624;2022-12-18T06:58:08;82.45;;;22.40;;
35150;SDS011;55720;51.972;4.624;2022-12-18T07:00:34;73.35;;;21.05;;
35150;SDS011;55720;51.972;4.624;2022-12-18T07:02:59;73.88;;;21.58;;
35150;SDS011;55720;51.972;4.624;2022-12-18T07:05:25;66.45;;;20.60;;
35150;SDS011;55720;51.972;4.624;2022-12-18T07:07:50;65.15;;;20.70;;
35150;SDS011;55720;51.972;4.624;2022-12-18T07:10:15;77.85;;;21.92;;
35150;SDS011;55720;51.972;4.624;2022-12-18T07:12:41;64.07;;;20.42;;
35150;SDS011;55720;51.972;4.624;2022-12-18T07:15:06;60.90;;;20.38;;
35150;SDS011;55720;51.972;4.624;2022-12-18T07:17:32;68.85;;;20.98;;
35150;SDS011;55720;51.972;4.624;2022-12-18T07:19:57;63.45;;;19.33;;
35150;SDS011;55720;51.972;4.624;2022-12-18T07:22:23;59.40;;;19.30;;
35150;SDS011;55720;51.972;4.624;2022-12-18T07:24:50;63.30;;;19.67;;
35150;SDS011;55720;51.972;4.624;2022-12-18T07:27:15;61.35;;;19.33;;
35150;SDS011;55720;51.972;4.624;2022-12-18T07:29:40;60.25;;;19.67;;
35150;SDS011;55720;51.972;4.624;2022-12-18T07:32:06;59.92;;;19.65;;
35150;SDS011;55720;51.972;4.624;2022-12-18T07:34:32;62.92;;;20.52;;
35150;SDS011;55720;51.972;4.624;2022-12-18T07:36:57;65.68;;;19.52;;
35150;SDS011;55720;51.972;4.624;2022-12-18T07:39:23;55.55;;;19.13;;
35150;SDS011;55720;51.972;4.624;2022-12-18T07:41:48;67.45;;;20.02;;
35150;SDS011;55720;51.972;4.624;2022-12-18T07:44:33;67.13;;;19.00;;
35150;SDS011;55720;51.972;4.624;2022-12-18T07:46:58;55.05;;;18.77;;
35150;SDS011;55720;51.972;4.624;2022-12-18T07:49:24;51.97;;;18.77;;
35150;SDS011;55720;51.972;4.624;2022-12-18T07:51:49;62.90;;;20.00;;
35150;SDS011;55720;51.972;4.624;2022-12-18T07:54:14;58.28;;;18.98;;
35150;SDS011;55720;51.972;4.624;2022-12-18T07:56:40;56.38;;;19.63;;
35150;SDS011;55720;51.972;4.624;2022-12-18T07:59:06;56.88;;;18.58;;
35150;SDS011;55720;51.972;4.624;2022-12-18T08:01:31;54.83;;;18.80;;
35150;SDS011;55720;51.972;4.624;2022-12-18T08:03:57;53.33;;;17.17;;
35150;SDS011;55720;51.972;4.624;2022-12-18T08:06:23;49.65;;;18.38;;
35150;SDS011;55720;51.972;4.624;2022-12-18T08:08:49;48.25;;;18.50;;
35150;SDS011;55720;51.972;4.624;2022-12-18T08:11:16;54.05;;;19.23;;
35150;SDS011;55720;51.972;4.624;2022-12-18T08:13:41;48.70;;;17.80;;
35150;SDS011;55720;51.972;4.624;2022-12-18T08:16:06;53.50;;;18.52;;
35150;SDS011;55720;51.972;4.624;2022-12-18T08:18:33;52.15;;;18.50;;
35150;SDS011;55720;51.972;4.624;2022-12-18T08:21:12;50.35;;;18.48;;
35150;SDS011;55720;51.972;4.624;2022-12-18T08:23:43;52.95;;;19.23;;
35150;SDS011;55720;51.972;4.624;2022-12-18T08:26:09;47.95;;;17.63;;
35150;SDS011;55720;51.972;4.624;2022-12-18T08:28:35;46.55;;;17.65;;
35150;SDS011;55720;51.972;4.624;2022-12-18T08:31:01;48.58;;;18.17;;
35150;SDS011;55720;51.972;4.624;2022-12-18T08:33:26;42.63;;;16.33;;
35150;SDS011;55720;51.972;4.624;2022-12-18T08:35:52;46.17;;;16.90;;
35150;SDS011;55720;51.972;4.624;2022-12-18T08:38:18;43.55;;;17.17;;
35150;SDS011;55720;51.972;4.624;2022-12-18T08:40:43;46.75;;;17.05;;
35150;SDS011;55720;51.972;4.624;2022-12-18T08:43:11;46.88;;;16.45;;
35150;SDS011;55720;51.972;4.624;2022-12-18T08:45:55;41.70;;;15.60;;
35150;SDS011;55720;51.972;4.624;2022-12-18T08:48:21;46.67;;;15.63;;
35150;SDS011;55720;51.972;4.624;2022-12-18T08:50:53;40.80;;;16.13;;
35150;SDS011;55720;51.972;4.624;2022-12-18T08:53:20;44.45;;;16.88;;
35150;SDS011;55720;51.972;4.624;2022-12-18T08:55:45;48.67;;;16.95;;
35150;SDS011;55720;51.972;4.624;2022-12-18T08:58:10;41.47;;;17.15;;
35150;SDS011;55720;51.972;4.624;2022-12-18T09:00:36;43.70;;;15.48;;
35150;SDS011;55720;51.972;4.624;2022-12-18T09:03:01;42.60;;;15.15;;
35150;SDS011;55720;51.972;4.624;2022-12-18T09:05:26;40.58;;;16.20;;
35150;SDS011;55720;51.972;4.624;2022-12-18T09:07:52;36.83;;;14.85;;
35150;SDS011;55720;51.972;4.624;2022-12-18T09:10:17;38.35;;;15.82;;
35150;SDS011;55720;51.972;4.624;2022-12-18T09:12:43;39.58;;;15.90;;
35150;SDS011;55720;51.972;4.624;2022-12-18T09:15:08;40.95;;;16.27;;
35150;SDS011;55720;51.972;4.624;2022-12-18T09:17:34;39.67;;;15.63;;
35150;SDS011;55720;51.972;4.624;2022-12-18T09:19:59;38.13;;;16.15;;
35150;SDS011;55720;51.972;4.624;2022-12-18T09:22:24;36.70;;;15.50;;
35150;SDS011;55720;51.972;4.624;2022-12-18T09:24:50;44.00;;;17.00;;
35150;SDS011;55720;51.972;4.624;2022-12-18T09:27:15;35.33;;;15.75;;
35150;SDS011;55720;51.972;4.624;2022-12-18T09:29:40;41.30;;;15.40;;
35150;SDS011;55720;51.972;4.624;2022-12-18T09:32:06;38.13;;;17.13;;
35150;SDS011;55720;51.972;4.624;2022-12-18T09:34:31;39.97;;;16.52;;
35150;SDS011;55720;51.972;4.624;2022-12-18T09:36:56;38.30;;;16.20;;
35150;SDS011;55720;51.972;4.624;2022-12-18T09:39:22;40.53;;;16.02;;
35150;SDS011;55720;51.972;4.624;2022-12-18T09:49:38;39.78;;;14.82;;
35150;SDS011;55720;51.972;4.624;2022-12-18T09:52:12;36.00;;;14.50;;
35150;SDS011;55720;51.972;4.624;2022-12-18T09:55:03;38.22;;;15.88;;
35150;SDS011;55720;51.972;4.624;2022-12-18T09:57:36;36.03;;;15.77;;
35150;SDS011;55720;51.972;4.624;2022-12-18T10:00:09;31.85;;;15.02;;
35150;SDS011;55720;51.972;4.624;2022-12-18T10:02:41;36.60;;;14.73;;
35150;SDS011;55720;51.972;4.624;2022-12-18T10:05:07;35.40;;;15.23;;
35150;SDS011;55720;51.972;4.624;2022-12-18T10:07:42;36.10;;;14.85;;
35150;SDS011;55720;51.972;4.624;2022-12-18T10:10:32;33.78;;;14.48;;
35150;SDS011;55720;51.972;4.624;2022-12-18T10:13:09;31.88;;;15.40;;
35150;SDS011;55720;51.972;4.624;2022-12-18T10:18:40;33.47;;;13.63;;
35150;SDS011;55720;51.972;4.624;2022-12-18T10:21:15;30.67;;;14.10;;
35150;SDS011;55720;51.972;4.624;2022-12-18T10:24:05;31.92;;;14.65;;
35150;SDS011;55720;51.972;4.624;2022-12-18T10:26:41;31.90;;;15.07;;
35150;SDS011;55720;51.972;4.624;2022-12-18T10:29:10;34.35;;;13.32;;
35150;SDS011;55720;51.972;4.624;2022-12-18T10:31:38;31.98;;;14.25;;
35150;SDS011;55720;51.972;4.624;2022-12-18T10:34:03;36.05;;;15.00;;
35150;SDS011;55720;51.972;4.624;2022-12-18T10:36:28;33.92;;;15.38;;
35150;SDS011;55720;51.972;4.624;2022-12-18T10:38:54;33.83;;;14.25;;
35150;SDS011;55720;51.972;4.624;2022-12-18T10:41:39;30.23;;;13.10;;
35150;SDS011;55720;51.972;4.624;2022-12-18T10:46:48;30.88;;;13.98;;
35150;SDS011;55720;51.972;4.624;2022-12-18T10:49:19;28.50;;;14.30;;
35150;SDS011;55720;51.972;4.624;2022-12-18T10:51:48;31.48;;;14.68;;
35150;SDS011;55720;51.972;4.624;2022-12-18T10:54:16;30.10;;;12.77;;
35150;SDS011;55720;51.972;4.624;2022-12-18T10:56:43;28.55;;;12.88;;
35150;SDS011;55720;51.972;4.624;2022-12-18T10:59:10;32.72;;;13.75;;
35150;SDS011;55720;51.972;4.624;2022-12-18T11:01:47;28.75;;;13.98;;
35150;SDS011;55720;51.972;4.624;2022-12-18T11:06:52;31.70;;;14.10;;
35150;SDS011;55720;51.972;4.624;2022-12-18T11:11:57;29.38;;;13.73;;
35150;SDS011;55720;51.972;4.624;2022-12-18T11:14:29;29.95;;;13.80;;
35150;SDS011;55720;51.972;4.624;2022-12-18T11:16:57;30.42;;;14.55;;
35150;SDS011;55720;51.972;4.624;2022-12-18T11:22:01;30.05;;;14.27;;
35150;SDS011;55720;51.972;4.624;2022-12-18T11:27:18;30.73;;;13.63;;
35150;SDS011;55720;51.972;4.624;2022-12-18T11:29:44;32.38;;;13.70;;
35150;SDS011;55720;51.972;4.624;2022-12-18T11:35:10;33.60;;;13.20;;
35150;SDS011;55720;51.972;4.624;2022-12-18T11:37:47;34.55;;;14.55;;
35150;SDS011;55720;51.972;4.624;2022-12-18T11:40:38;31.33;;;13.60;;
35150;SDS011;55720;51.972;4.624;2022-12-18T11:43:10;30.02;;;13.43;;
35150;SDS011;55720;51.972;4.624;2022-12-18T11:45:52;32.50;;;14.30;;
35150;SDS011;55720;51.972;4.624;2022-12-18T11:48:22;32.38;;;13.77;;
35150;SDS011;55720;51.972;4.624;2022-12-18T11:50:53;31.08;;;13.95;;
35150;SDS011;55720;51.972;4.624;2022-12-18T11:53:20;31.50;;;14.15;;
35150;SDS011;55720;51.972;4.624;2022-12-18T11:58:40;32.22;;;15.15;;
35150;SDS011;55720;51.972;4.624;2022-12-18T12:01:29;29.95;;;15.40;;
35150;SDS011;55720;51.972;4.624;2022-12-18T12:15:32;35.53;;;14.40;;
35150;SDS011;55720;51.972;4.624;2022-12-18T12:20:58;28.27;;;13.90;;
35150;SDS011;55720;51.972;4.624;2022-12-18T12:23:41;26.35;;;13.20;;
35150;SDS011;55720;51.972;4.624;2022-12-18T12:31:36;32.63;;;14.00;;
35150;SDS011;55720;51.972;4.624;2022-12-18T12:34:45;30.50;;;14.43;;
35150;SDS011;55720;51.972;4.624;2022-12-18T12:39:56;28.90;;;13.55;;
35150;SDS011;55720;51.972;4.624;2022-12-18T12:45:14;27.85;;;13.73;;
35150;SDS011;55720;51.972;4.624;2022-12-18T12:47:58;31.58;;;13.85;;
35150;SDS011;55720;51.972;4.624;2022-12-18T12:50:27;33.53;;;14.93;;
35150;SDS011;55720;51.972;4.624;2022-12-18T12:52:58;27.02;;;12.80;;
35150;SDS011;55720;51.972;4.624;2022-12-18T12:55:26;28.58;;;13.60;;
35150;SDS011;55720;51.972;4.624;2022-12-18T13:00:23;29.90;;;13.00;;
35150;SDS011;55720;51.972;4.624;2022-12-18T13:08:01;29.95;;;14.05;;
35150;SDS011;55720;51.972;4.624;2022-12-18T13:10:35;30.17;;;14.00;;
35150;SDS011;55720;51.972;4.624;2022-12-18T13:13:12;30.27;;;14.82;;
35150;SDS011;55720;51.972;4.624;2022-12-18T13:15:45;33.70;;;14.25;;
35150;SDS011;55720;51.972;4.624;2022-12-18T13:18:19;33.50;;;14.18;;
35150;SDS011;55720;51.972;4.624;2022-12-18T13:20:47;30.20;;;14.95;;
35150;SDS011;55720;51.972;4.624;2022-12-18T13:25:51;33.65;;;14.10;;
35150;SDS011;55720;51.972;4.624;2022-12-18T13:30:59;29.08;;;13.68;;
35150;SDS011;55720;51.972;4.624;2022-12-18T13:36:09;27.85;;;13.75;;
35150;SDS011;55720;51.972;4.624;2022-12-18T13:38:38;27.55;;;13.40;;
35150;SDS011;55720;51.972;4.624;2022-12-18T13:43:43;33.53;;;14.98;;
35150;SDS011;55720;51.972;4.624;2022-12-18T13:46:25;31.38;;;14.15;;
35150;SDS011;55720;51.972;4.624;2022-12-18T13:51:39;31.00;;;14.15;;
35150;SDS011;55720;51.972;4.624;2022-12-18T13:59:56;34.10;;;14.13;;
35150;SDS011;55720;51.972;4.624;2022-12-18T14:02:23;30.83;;;13.95;;
35150;SDS011;55720;51.972;4.624;2022-12-18T14:04:51;33.05;;;14.98;;
35150;SDS011;55720;51.972;4.624;2022-12-18T14:07:18;35.45;;;14.05;;
35150;SDS011;55720;51.972;4.624;2022-12-18T14:09:54;33.60;;;14.27;;
35150;SDS011;55720;51.972;4.624;2022-12-18T14:22:50;31.58;;;14.48;;
35150;SDS011;55720;51.972;4.624;2022-12-18T14:25:18;30.75;;;14.85;;
35150;SDS011;55720;51.972;4.624;2022-12-18T14:27:47;33.05;;;14.82;;
35150;SDS011;55720;51.972;4.624;2022-12-18T14:30:25;31.48;;;14.32;;
35150;SDS011;55720;51.972;4.624;2022-12-18T14:33:09;37.22;;;14.88;;
35150;SDS011;55720;51.972;4.624;2022-12-18T14:35:39;32.10;;;13.88;;
35150;SDS011;55720;51.972;4.624;2022-12-18T14:38:10;32.17;;;15.00;;
35150;SDS011;55720;51.972;4.624;2022-12-18T14:40:42;32.38;;;14.85;;
35150;SDS011;55720;51.972;4.624;2022-12-18T14:43:11;33.35;;;16.45;;
35150;SDS011;55720;51.972;4.624;2022-12-18T14:45:37;29.27;;;13.90;;
35150;SDS011;55720;51.972;4.624;2022-12-18T14:48:22;35.35;;;15.45;;
35150;SDS011;55720;51.972;4.624;2022-12-18T14:51:00;33.45;;;15.27;;
35150;SDS011;55720;51.972;4.624;2022-12-18T14:53:32;30.92;;;14.70;;
35150;SDS011;55720;51.972;4.624;2022-12-18T14:56:00;37.17;;;15.43;;
35150;SDS011;55720;51.972;4.624;2022-12-18T14:58:27;32.58;;;15.05;;
35150;SDS011;55720;51.972;4.624;2022-12-18T15:00:52;32.75;;;15.32;;
35150;SDS011;55720;51.972;4.624;2022-12-18T15:03:18;34.35;;;15.73;;
35150;SDS011;55720;51.972;4.624;2022-12-18T15:05:46;32.10;;;14.13;;
35150;SDS011;55720;51.972;4.624;2022-12-18T15:08:29;37.35;;;15.30;;
35150;SDS011;55720;51.972;4.624;2022-12-18T15:11:01;34.45;;;15.02;;
35150;SDS011;55720;51.972;4.624;2022-12-18T15:13:27;36.42;;;15.43;;
35150;SDS011;55720;51.972;4.624;2022-12-18T15:15:53;33.35;;;14.15;;
35150;SDS011;55720;51.972;4.624;2022-12-18T15:18:26;32.03;;;14.55;;
35150;SDS011;55720;51.972;4.624;2022-12-18T15:21:10;30.45;;;14.50;;
35150;SDS011;55720;51.972;4.624;2022-12-18T15:23:46;27.33;;;13.38;;
35150;SDS011;55720;51.972;4.624;2022-12-18T15:26:16;30.75;;;14.52;;
35150;SDS011;55720;51.972;4.624;2022-12-18T15:33:59;34.03;;;14.68;;
35150;SDS011;55720;51.972;4.624;2022-12-18T15:36:45;29.02;;;13.82;;
35150;SDS011;55720;51.972;4.624;2022-12-18T15:39:11;29.85;;;14.07;;
35150;SDS011;55720;51.972;4.624;2022-12-18T15:41:37;29.40;;;15.02;;
35150;SDS011;55720;51.972;4.624;2022-12-18T15:44:03;31.15;;;14.93;;
35150;SDS011;55720;51.972;4.624;2022-12-18T15:46:50;33.17;;;15.40;;
35150;SDS011;55720;51.972;4.624;2022-12-18T15:49:15;30.92;;;14.65;;
35150;SDS011;55720;51.972;4.624;2022-12-18T15:51:41;34.75;;;14.80;;
35150;SDS011;55720;51.972;4.624;2022-12-18T15:54:09;28.75;;;14.38;;
35150;SDS011;55720;51.972;4.624;2022-12-18T15:56:38;36.63;;;14.35;;
35150;SDS011;55720;51.972;4.624;2022-12-18T15:59:22;32.72;;;14.82;;
35150;SDS011;55720;51.972;4.624;2022-12-18T16:01:48;32.47;;;14.23;;
35150;SDS011;55720;51.972;4.624;2022-12-18T16:04:16;32.67;;;14.75;;
35150;SDS011;55720;51.972;4.624;2022-12-18T16:06:45;30.30;;;13.60;;
35150;SDS011;55720;51.972;4.624;2022-12-18T16:09:10;29.42;;;14.40;;
35150;SDS011;55720;51.972;4.624;2022-12-18T16:11:36;30.15;;;15.07;;
35150;SDS011;55720;51.972;4.624;2022-12-18T16:14:18;30.17;;;14.10;;
35150;SDS011;55720;51.972;4.624;2022-12-18T16:16:53;29.48;;;14.55;;
35150;SDS011;55720;51.972;4.624;2022-12-18T16:19:20;37.83;;;14.45;;
35150;SDS011;55720;51.972;4.624;2022-12-18T16:21:46;30.17;;;13.90;;
35150;SDS011;55720;51.972;4.624;2022-12-18T16:24:17;31.70;;;14.02;;
35150;SDS011;55720;51.972;4.624;2022-12-18T16:26:44;28.80;;;14.18;;
35150;SDS011;55720;51.972;4.624;2022-12-18T16:29:10;27.23;;;13.57;;
35150;SDS011;55720;51.972;4.624;2022-12-18T16:31:36;34.03;;;15.18;;
35150;SDS011;55720;51.972;4.624;2022-12-18T16:34:18;32.75;;;15.15;;
35150;SDS011;55720;51.972;4.624;2022-12-18T16:36:51;29.88;;;14.48;;
35150;SDS011;55720;51.972;4.624;2022-12-18T16:39:18;34.40;;;15.48;;
35150;SDS011;55720;51.972;4.624;2022-12-18T16:41:44;29.60;;;13.70;;